sensor_id;sensor_type;location;lat;lon;timestamp;pressure;altitude;pressure_sealevel;temperature;humidity
25610;BME280;13479;49.044;8.716;2023-05-22T04:01:22;98718.94;;;14.54;93.88
25610;BME280;13479;49.044;8.716;2023-05-22T04:03:47;98726.50;;;14.67;93.88
25610;BME280;13479;49.044;8.716;2023-05-22T04:06:12;98731.03;;;14.75;93.05
25610;BME280;13479;49.044;8.716;2023-05-22T04:08:38;98728.81;;;14.70;93.05
25610;BME280;13479;49.044;8.716;2023-05-22T04:11:03;98715.00;;;14.75;93.57
25610;BME280;13479;49.044;8.716;2023-05-22T04:13:29;98705.13;;;14.83;93.65
25610;BME280;13479;49.044;8.716;2023-05-22T04:15:55;98735.69;;;15.06;92.53
25610;BME280;13479;49.044;8.716;2023-05-22T04:18:21;98732.84;;;15.24;90.83
25610;BME280;13479;49.044;8.716;2023-05-22T04:20:46;98715.72;;;15.41;88.00
25610;BME280;13479;49.044;8.716;2023-05-22T04:23:11;98688.31;;;15.48;86.91
25610;BME280;13479;49.044;8.716;2023-05-22T04:25:37;98675.41;;;15.51;86.52
25610;BME280;13479;49.044;8.716;2023-05-22T04:28:02;98663.19;;;15.49;87.01
25610;BME280;13479;49.044;8.716;2023-05-22T04:30:28;98663.53;;;15.54;87.11
25610;BME280;13479;49.044;8.716;2023-05-22T04:32:54;98664.47;;;15.69;87.12
25610;BME280;13479;49.044;8.716;2023-05-22T04:35:20;98673.66;;;15.75;86.94
25610;BME280;13479;49.044;8.716;2023-05-22T04:37:46;98676.63;;;15.80;86.71
25610;BME280;13479;49.044;8.716;2023-05-22T04:40:11;98690.97;;;15.96;85.88
25610;BME280;13479;49.044;8.716;2023-05-22T04:42:39;98686.25;;;16.06;85.50
25610;BME280;13479;49.044;8.716;2023-05-22T04:45:04;98675.53;;;16.06;86.04
25610;BME280;13479;49.044;8.716;2023-05-22T04:47:30;98662.94;;;16.15;86.66
25610;BME280;13479;49.044;8.716;2023-05-22T04:49:58;98657.09;;;16.34;86.56
25610;BME280;13479;49.044;8.716;2023-05-22T04:52:24;98695.69;;;16.48;85.45
25610;BME280;13479;49.044;8.716;2023-05-22T04:54:50;98693.16;;;16.70;85.10
25610;BME280;13479;49.044;8.716;2023-05-22T04:57:16;98692.13;;;16.94;84.14
25610;BME280;13479;49.044;8.716;2023-05-22T04:59:42;98684.25;;;17.16;83.79
25610;BME280;13479;49.044;8.716;2023-05-22T05:02:08;98693.13;;;17.47;82.44
25610;BME280;13479;49.044;8.716;2023-05-22T05:04:33;98681.44;;;17.69;80.91
25610;BME280;13479;49.044;8.716;2023-05-22T05:06:58;98672.25;;;17.94;79.80
25610;BME280;13479;49.044;8.716;2023-05-22T05:09:24;98663.13;;;18.25;78.67
25610;BME280;13479;49.044;8.716;2023-05-22T05:11:50;98675.66;;;18.61;74.96
25610;BME280;13479;49.044;8.716;2023-05-22T05:14:16;98650.31;;;18.70;73.58
25610;BME280;13479;49.044;8.716;2023-05-22T05:16:41;98656.81;;;19.04;71.76
25610;BME280;13479;49.044;8.716;2023-05-22T05:19:06;98659.66;;;19.73;68.01
25610;BME280;13479;49.044;8.716;2023-05-22T05:21:32;98639.16;;;20.41;64.95
25610;BME280;13479;49.044;8.716;2023-05-22T05:23:57;98618.81;;;21.12;62.90
25610;BME280;13479;49.044;8.716;2023-05-22T05:26:22;98633.00;;;22.12;60.21
25610;BME280;13479;49.044;8.716;2023-05-22T05:28:48;98621.59;;;22.92;56.68
25610;BME280;13479;49.044;8.716;2023-05-22T05:31:14;98620.50;;;23.74;54.47
25610;BME280;13479;49.044;8.716;2023-05-22T05:33:39;98619.47;;;24.60;51.69
25610;BME280;13479;49.044;8.716;2023-05-22T05:36:04;98634.50;;;25.34;49.34
25610;BME280;13479;49.044;8.716;2023-05-22T05:38:30;98633.41;;;26.00;47.66
25610;BME280;13479;49.044;8.716;2023-05-22T05:40:55;98658.03;;;26.68;46.09
25610;BME280;13479;49.044;8.716;2023-05-22T05:43:20;98663.88;;;27.28;43.90
25610;BME280;13479;49.044;8.716;2023-05-22T05:45:47;98667.91;;;27.87;43.08
25610;BME280;13479;49.044;8.716;2023-05-22T05:48:12;98679.53;;;28.49;41.54
25610;BME280;13479;49.044;8.716;2023-05-22T05:50:37;98689.44;;;29.25;40.08
25610;BME280;13479;49.044;8.716;2023-05-22T05:53:03;98701.38;;;30.10;38.68
25610;BME280;13479;49.044;8.716;2023-05-22T05:55:28;98713.03;;;31.00;36.85
25610;BME280;13479;49.044;8.716;2023-05-22T05:57:54;98714.56;;;31.73;35.87
25610;BME280;13479;49.044;8.716;2023-05-22T06:00:19;98733.19;;;32.47;35.11
25610;BME280;13479;49.044;8.716;2023-05-22T06:02:44;98738.59;;;33.03;33.17
25610;BME280;13479;49.044;8.716;2023-05-22T06:05:10;98745.13;;;33.41;32.55
25610;BME280;13479;49.044;8.716;2023-05-22T06:07:35;98756.97;;;34.15;30.83
25610;BME280;13479;49.044;8.716;2023-05-22T06:10:07;98775.16;;;34.35;31.23
25610;BME280;13479;49.044;8.716;2023-05-22T06:12:33;98780.19;;;34.90;29.60
25610;BME280;13479;49.044;8.716;2023-05-22T06:14:58;98794.66;;;35.01;29.50
25610;BME280;13479;49.044;8.716;2023-05-22T06:17:23;98789.50;;;35.14;29.31
25610;BME280;13479;49.044;8.716;2023-05-22T06:19:49;98792.47;;;35.64;28.44
25610;BME280;13479;49.044;8.716;2023-05-22T06:22:14;98792.84;;;36.05;28.09
25610;BME280;13479;49.044;8.716;2023-05-22T06:24:40;98797.72;;;36.50;27.50
25610;BME280;13479;49.044;8.716;2023-05-22T06:27:05;98801.00;;;36.38;27.64
25610;BME280;13479;49.044;8.716;2023-05-22T06:29:31;98806.84;;;36.50;27.32
25610;BME280;13479;49.044;8.716;2023-05-22T06:31:56;98804.28;;;37.13;26.73
25610;BME280;13479;49.044;8.716;2023-05-22T06:34:21;98802.41;;;37.45;26.06
25610;BME280;13479;49.044;8.716;2023-05-22T06:36:47;98801.72;;;37.71;25.91
25610;BME280;13479;49.044;8.716;2023-05-22T06:39:14;98811.88;;;38.16;25.27
25610;BME280;13479;49.044;8.716;2023-05-22T06:41:40;98802.63;;;38.38;24.83
25610;BME280;13479;49.044;8.716;2023-05-22T06:44:05;98809.34;;;38.63;24.60
25610;BME280;13479;49.044;8.716;2023-05-22T06:46:31;98808.88;;;39.05;24.13
25610;BME280;13479;49.044;8.716;2023-05-22T06:48:56;98805.94;;;39.37;23.84
25610;BME280;13479;49.044;8.716;2023-05-22T06:51:21;98809.47;;;39.55;23.57
25610;BME280;13479;49.044;8.716;2023-05-22T06:53:48;98813.41;;;40.02;22.92
25610;BME280;13479;49.044;8.716;2023-05-22T06:56:13;98818.44;;;40.38;22.82
25610;BME280;13479;49.044;8.716;2023-05-22T06:58:38;98810.31;;;41.18;21.74
25610;BME280;13479;49.044;8.716;2023-05-22T07:01:04;98804.78;;;41.76;20.92
25610;BME280;13479;49.044;8.716;2023-05-22T07:03:29;98818.03;;;42.29;20.92
25610;BME280;13479;49.044;8.716;2023-05-22T07:05:55;98814.91;;;42.55;20.30
25610;BME280;13479;49.044;8.716;2023-05-22T07:08:22;98818.56;;;42.72;20.39
25610;BME280;13479;49.044;8.716;2023-05-22T07:10:47;98816.97;;;42.99;20.49
25610;BME280;13479;49.044;8.716;2023-05-22T07:13:12;98818.88;;;43.68;19.33
25610;BME280;13479;49.044;8.716;2023-05-22T07:15:37;98823.72;;;44.19;19.09
25610;BME280;13479;49.044;8.716;2023-05-22T07:18:03;98821.53;;;44.64;18.40
25610;BME280;13479;49.044;8.716;2023-05-22T07:20:28;98823.75;;;44.39;18.43
25610;BME280;13479;49.044;8.716;2023-05-22T07:22:53;98821.25;;;44.69;18.17
25610;BME280;13479;49.044;8.716;2023-05-22T07:25:18;98828.78;;;44.85;18.08
25610;BME280;13479;49.044;8.716;2023-05-22T07:27:44;98832.31;;;44.82;17.74
25610;BME280;13479;49.044;8.716;2023-05-22T07:30:09;98829.53;;;44.46;17.96
25610;BME280;13479;49.044;8.716;2023-05-22T07:32:35;98829.03;;;44.60;17.85
25610;BME280;13479;49.044;8.716;2023-05-22T07:35:00;98830.03;;;44.87;17.95
25610;BME280;13479;49.044;8.716;2023-05-22T07:37:25;98831.38;;;45.56;17.45
25610;BME280;13479;49.044;8.716;2023-05-22T07:39:51;98827.03;;;46.05;17.30
25610;BME280;13479;49.044;8.716;2023-05-22T07:42:16;98833.38;;;46.29;16.70
25610;BME280;13479;49.044;8.716;2023-05-22T07:44:41;98837.41;;;46.55;16.53
25610;BME280;13479;49.044;8.716;2023-05-22T07:47:06;98839.84;;;46.60;16.53
25610;BME280;13479;49.044;8.716;2023-05-22T07:49:32;98841.06;;;46.90;16.66
25610;BME280;13479;49.044;8.716;2023-05-22T07:51:58;98835.44;;;47.24;16.30
25610;BME280;13479;49.044;8.716;2023-05-22T07:54:23;98834.56;;;46.85;16.50
25610;BME280;13479;49.044;8.716;2023-05-22T07:56:48;98834.81;;;46.43;16.59
25610;BME280;13479;49.044;8.716;2023-05-22T07:59:14;98831.84;;;46.35;16.74
25610;BME280;13479;49.044;8.716;2023-05-22T08:01:40;98828.41;;;46.46;16.68
25610;BME280;13479;49.044;8.716;2023-05-22T08:04:08;98833.09;;;46.95;16.43
25610;BME280;13479;49.044;8.716;2023-05-22T08:06:33;98831.91;;;46.96;16.41
25610;BME280;13479;49.044;8.716;2023-05-22T08:08:59;98831.91;;;47.30;16.12
25610;BME280;13479;49.044;8.716;2023-05-22T08:11:25;98828.75;;;47.01;16.19
25610;BME280;13479;49.044;8.716;2023-05-22T08:13:50;98839.28;;;47.46;15.97
25610;BME280;13479;49.044;8.716;2023-05-22T08:16:15;98833.44;;;47.24;15.88
25610;BME280;13479;49.044;8.716;2023-05-22T08:18:40;98832.47;;;47.13;15.89
25610;BME280;13479;49.044;8.716;2023-05-22T08:21:06;98841.78;;;46.83;16.24
25610;BME280;13479;49.044;8.716;2023-05-22T08:23:31;98837.22;;;46.44;16.38
25610;BME280;13479;49.044;8.716;2023-05-22T08:25:59;98831.88;;;46.08;16.83
25610;BME280;13479;49.044;8.716;2023-05-22T08:28:25;98821.19;;;43.98;17.99
25610;BME280;13479;49.044;8.716;2023-05-22T08:30:50;98811.50;;;41.75;20.38
25610;BME280;13479;49.044;8.716;2023-05-22T08:33:16;98794.31;;;41.61;20.70
25610;BME280;13479;49.044;8.716;2023-05-22T08:35:41;98788.88;;;40.55;21.94
25610;BME280;13479;49.044;8.716;2023-05-22T08:38:06;98783.13;;;40.09;22.48
25610;BME280;13479;49.044;8.716;2023-05-22T08:40:36;98770.84;;;40.40;22.34
25610;BME280;13479;49.044;8.716;2023-05-22T08:43:03;98763.63;;;40.18;22.19
25610;BME280;13479;49.044;8.716;2023-05-22T08:45:29;98756.84;;;39.97;22.65
25610;BME280;13479;49.044;8.716;2023-05-22T08:47:59;98750.09;;;39.77;23.11
25610;BME280;13479;49.044;8.716;2023-05-22T08:50:28;98750.00;;;39.56;23.36
25610;BME280;13479;49.044;8.716;2023-05-22T08:52:54;98745.41;;;39.04;24.08
25610;BME280;13479;49.044;8.716;2023-05-22T08:55:23;98738.22;;;38.76;24.88
25610;BME280;13479;49.044;8.716;2023-05-22T08:57:49;98736.09;;;38.38;25.50
25610;BME280;13479;49.044;8.716;2023-05-22T09:00:16;98727.75;;;38.29;25.79
25610;BME280;13479;49.044;8.716;2023-05-22T09:02:41;98729.56;;;38.34;26.06
25610;BME280;13479;49.044;8.716;2023-05-22T09:05:08;98731.53;;;38.86;25.79
25610;BME280;13479;49.044;8.716;2023-05-22T09:07:34;98728.44;;;38.79;24.94
25610;BME280;13479;49.044;8.716;2023-05-22T09:10:00;98723.56;;;38.85;25.33
25610;BME280;13479;49.044;8.716;2023-05-22T09:12:30;98724.97;;;39.08;24.94
25610;BME280;13479;49.044;8.716;2023-05-22T09:14:55;98724.59;;;39.36;24.50
25610;BME280;13479;49.044;8.716;2023-05-22T09:17:22;98736.16;;;39.86;24.27
25610;BME280;13479;49.044;8.716;2023-05-22T09:19:47;98736.63;;;40.60;23.19
25610;BME280;13479;49.044;8.716;2023-05-22T09:22:13;98746.06;;;41.23;22.73
25610;BME280;13479;49.044;8.716;2023-05-22T09:24:43;98750.22;;;42.00;22.11
25610;BME280;13479;49.044;8.716;2023-05-22T09:27:09;98758.78;;;42.85;21.03
25610;BME280;13479;49.044;8.716;2023-05-22T09:29:51;98765.53;;;43.29;20.13
25610;BME280;13479;49.044;8.716;2023-05-22T09:32:17;98768.09;;;43.50;20.54
25610;BME280;13479;49.044;8.716;2023-05-22T09:34:44;98776.00;;;43.48;20.36
25610;BME280;13479;49.044;8.716;2023-05-22T09:37:11;98773.41;;;43.11;20.50
25610;BME280;13479;49.044;8.716;2023-05-22T09:39:37;98770.41;;;42.47;20.99
25610;BME280;13479;49.044;8.716;2023-05-22T09:42:04;98762.38;;;42.33;22.27
25610;BME280;13479;49.044;8.716;2023-05-22T09:44:30;98761.78;;;42.39;21.70
25610;BME280;13479;49.044;8.716;2023-05-22T09:46:55;98758.09;;;42.23;21.27
25610;BME280;13479;49.044;8.716;2023-05-22T09:49:21;98752.19;;;41.62;22.35
25610;BME280;13479;49.044;8.716;2023-05-22T09:51:47;98746.63;;;41.16;22.53
25610;BME280;13479;49.044;8.716;2023-05-22T09:54:14;98733.06;;;40.94;22.93
25610;BME280;13479;49.044;8.716;2023-05-22T09:56:41;98728.09;;;40.44;23.07
25610;BME280;13479;49.044;8.716;2023-05-22T09:59:08;98727.16;;;39.89;23.44
25610;BME280;13479;49.044;8.716;2023-05-22T10:01:34;98724.00;;;39.04;23.92
25610;BME280;13479;49.044;8.716;2023-05-22T10:04:00;98714.84;;;38.07;25.69
25610;BME280;13479;49.044;8.716;2023-05-22T10:06:26;98716.84;;;37.66;25.89
25610;BME280;13479;49.044;8.716;2023-05-22T10:09:04;98702.88;;;37.80;26.19
25610;BME280;13479;49.044;8.716;2023-05-22T10:11:31;98701.94;;;37.94;26.41
25610;BME280;13479;49.044;8.716;2023-05-22T10:13:58;98696.53;;;37.80;26.09
25610;BME280;13479;49.044;8.716;2023-05-22T10:16:26;98696.84;;;37.38;26.54
25610;BME280;13479;49.044;8.716;2023-05-22T10:18:52;98693.81;;;37.48;27.16
25610;BME280;13479;49.044;8.716;2023-05-22T10:21:18;98689.88;;;37.40;26.61
25610;BME280;13479;49.044;8.716;2023-05-22T10:23:45;98690.13;;;36.76;28.25
25610;BME280;13479;49.044;8.716;2023-05-22T10:26:10;98688.50;;;36.52;28.41
25610;BME280;13479;49.044;8.716;2023-05-22T10:28:50;98688.44;;;36.43;28.36
25610;BME280;13479;49.044;8.716;2023-05-22T10:31:34;98682.06;;;36.66;28.31
25610;BME280;13479;49.044;8.716;2023-05-22T10:34:04;98684.53;;;36.90;28.40
25610;BME280;13479;49.044;8.716;2023-05-22T10:36:50;98686.34;;;37.58;26.50
25610;BME280;13479;49.044;8.716;2023-05-22T10:39:42;98693.06;;;37.65;26.50
25610;BME280;13479;49.044;8.716;2023-05-22T10:42:15;98696.34;;;37.36;26.78
25610;BME280;13479;49.044;8.716;2023-05-22T10:44:41;98686.28;;;37.40;27.42
25610;BME280;13479;49.044;8.716;2023-05-22T10:47:10;98679.75;;;37.76;27.27
25610;BME280;13479;49.044;8.716;2023-05-22T10:49:41;98672.41;;;37.72;26.74
25610;BME280;13479;49.044;8.716;2023-05-22T10:52:07;98677.44;;;37.69;26.62
25610;BME280;13479;49.044;8.716;2023-05-22T10:54:43;98683.28;;;37.28;26.77
25610;BME280;13479;49.044;8.716;2023-05-22T10:57:15;98673.22;;;37.32;27.46
25610;BME280;13479;49.044;8.716;2023-05-22T10:59:41;98667.94;;;37.21;27.42
25610;BME280;13479;49.044;8.716;2023-05-22T11:02:18;98660.78;;;37.20;27.41
25610;BME280;13479;49.044;8.716;2023-05-22T11:04:45;98658.94;;;36.84;28.45
25610;BME280;13479;49.044;8.716;2023-05-22T11:07:10;98661.59;;;36.44;29.12
25610;BME280;13479;49.044;8.716;2023-05-22T11:09:43;98667.19;;;36.16;29.39
25610;BME280;13479;49.044;8.716;2023-05-22T11:12:27;98646.28;;;36.01;29.06
25610;BME280;13479;49.044;8.716;2023-05-22T11:14:58;98640.66;;;35.78;28.84
25610;BME280;13479;49.044;8.716;2023-05-22T11:17:28;98642.63;;;35.50;29.49
25610;BME280;13479;49.044;8.716;2023-05-22T11:20:02;98639.81;;;35.08;30.12
25610;BME280;13479;49.044;8.716;2023-05-22T11:22:42;98644.19;;;34.62;31.46
25610;BME280;13479;49.044;8.716;2023-05-22T11:25:15;98634.47;;;34.12;32.19
25610;BME280;13479;49.044;8.716;2023-05-22T11:27:41;98632.72;;;33.78;32.78
25610;BME280;13479;49.044;8.716;2023-05-22T11:30:07;98626.09;;;33.36;32.96
25610;BME280;13479;49.044;8.716;2023-05-22T11:32:41;98624.69;;;32.79;33.93
25610;BME280;13479;49.044;8.716;2023-05-22T11:35:12;98624.88;;;32.24;35.53
25610;BME280;13479;49.044;8.716;2023-05-22T11:37:39;98628.69;;;31.68;36.44
25610;BME280;13479;49.044;8.716;2023-05-22T11:40:05;98628.50;;;31.49;37.07
25610;BME280;13479;49.044;8.716;2023-05-22T11:42:31;98621.41;;;31.37;37.28
25610;BME280;13479;49.044;8.716;2023-05-22T11:44:56;98619.53;;;31.27;37.45
25610;BME280;13479;49.044;8.716;2023-05-22T11:47:22;98611.59;;;31.16;37.98
25610;BME280;13479;49.044;8.716;2023-05-22T11:49:48;98605.06;;;31.01;38.63
25610;BME280;13479;49.044;8.716;2023-05-22T11:52:15;98605.03;;;30.91;38.08
25610;BME280;13479;49.044;8.716;2023-05-22T11:54:44;98594.94;;;30.81;38.33
25610;BME280;13479;49.044;8.716;2023-05-22T11:57:10;98584.28;;;30.64;37.76
25610;BME280;13479;49.044;8.716;2023-05-22T11:59:35;98593.03;;;30.66;38.62
25610;BME280;13479;49.044;8.716;2023-05-22T12:02:01;98580.19;;;30.61;39.15
25610;BME280;13479;49.044;8.716;2023-05-22T12:04:26;98574.97;;;30.55;39.01
25610;BME280;13479;49.044;8.716;2023-05-22T12:06:53;98579.34;;;30.45;38.54
25610;BME280;13479;49.044;8.716;2023-05-22T12:09:18;98572.22;;;30.29;39.01
25610;BME280;13479;49.044;8.716;2023-05-22T12:11:47;98579.88;;;30.27;38.76
25610;BME280;13479;49.044;8.716;2023-05-22T12:14:13;98579.56;;;30.18;38.82
25610;BME280;13479;49.044;8.716;2023-05-22T12:16:38;98582.03;;;30.14;38.65
25610;BME280;13479;49.044;8.716;2023-05-22T12:19:05;98576.00;;;29.97;39.16
25610;BME280;13479;49.044;8.716;2023-05-22T12:21:31;98577.84;;;29.76;38.38
25610;BME280;13479;49.044;8.716;2023-05-22T12:23:56;98585.19;;;29.59;39.98
25610;BME280;13479;49.044;8.716;2023-05-22T12:26:21;98588.13;;;29.42;39.62
25610;BME280;13479;49.044;8.716;2023-05-22T12:28:47;98579.00;;;29.26;39.86
25610;BME280;13479;49.044;8.716;2023-05-22T12:31:22;98584.38;;;29.06;39.46
25610;BME280;13479;49.044;8.716;2023-05-22T12:33:47;98582.25;;;29.18;40.32
25610;BME280;13479;49.044;8.716;2023-05-22T12:36:13;98578.72;;;29.28;39.65
25610;BME280;13479;49.044;8.716;2023-05-22T12:38:39;98578.56;;;29.40;39.75
25610;BME280;13479;49.044;8.716;2023-05-22T12:41:04;98572.75;;;29.31;39.93
25610;BME280;13479;49.044;8.716;2023-05-22T12:43:30;98564.78;;;29.24;39.47
25610;BME280;13479;49.044;8.716;2023-05-22T12:45:55;98569.25;;;29.36;40.42
25610;BME280;13479;49.044;8.716;2023-05-22T12:48:20;98571.44;;;29.39;39.78
25610;BME280;13479;49.044;8.716;2023-05-22T12:50:46;98579.16;;;29.52;38.01
25610;BME280;13479;49.044;8.716;2023-05-22T12:53:12;98588.75;;;29.60;38.40
25610;BME280;13479;49.044;8.716;2023-05-22T12:55:38;98600.31;;;29.83;37.71
25610;BME280;13479;49.044;8.716;2023-05-22T12:58:03;98598.47;;;29.99;38.42
25610;BME280;13479;49.044;8.716;2023-05-22T13:00:28;98592.19;;;30.14;38.27
25610;BME280;13479;49.044;8.716;2023-05-22T13:02:54;98593.28;;;30.23;37.55
25610;BME280;13479;49.044;8.716;2023-05-22T13:05:19;98593.81;;;30.41;37.28
25610;BME280;13479;49.044;8.716;2023-05-22T13:07:45;98591.91;;;30.41;37.15
25610;BME280;13479;49.044;8.716;2023-05-22T13:10:10;98596.28;;;30.27;37.64
25610;BME280;13479;49.044;8.716;2023-05-22T13:12:36;98584.78;;;30.09;37.83
25610;BME280;13479;49.044;8.716;2023-05-22T13:15:01;98573.78;;;29.88;38.56
25610;BME280;13479;49.044;8.716;2023-05-22T13:17:27;98576.50;;;29.83;37.94
25610;BME280;13479;49.044;8.716;2023-05-22T13:19:56;98564.41;;;29.69;38.64
25610;BME280;13479;49.044;8.716;2023-05-22T13:22:22;98562.50;;;29.64;38.05
25610;BME280;13479;49.044;8.716;2023-05-22T13:24:48;98554.81;;;29.56;38.78
25610;BME280;13479;49.044;8.716;2023-05-22T13:27:15;98554.81;;;29.56;38.97
25610;BME280;13479;49.044;8.716;2023-05-22T13:29:41;98548.25;;;29.62;38.30
25610;BME280;13479;49.044;8.716;2023-05-22T13:32:06;98549.09;;;29.63;38.53
25610;BME280;13479;49.044;8.716;2023-05-22T13:34:31;98545.31;;;29.84;38.15
25610;BME280;13479;49.044;8.716;2023-05-22T13:36:56;98547.00;;;29.96;38.26
25610;BME280;13479;49.044;8.716;2023-05-22T13:39:22;98546.22;;;30.06;37.85
25610;BME280;13479;49.044;8.716;2023-05-22T13:41:47;98562.63;;;30.06;36.81
25610;BME280;13479;49.044;8.716;2023-05-22T13:44:12;98551.41;;;30.17;37.60
25610;BME280;13479;49.044;8.716;2023-05-22T13:46:38;98560.44;;;30.33;37.21
25610;BME280;13479;49.044;8.716;2023-05-22T13:49:03;98558.78;;;30.48;37.25
25610;BME280;13479;49.044;8.716;2023-05-22T13:51:28;98558.53;;;30.55;37.13
25610;BME280;13479;49.044;8.716;2023-05-22T13:53:53;98557.97;;;30.58;36.28
25610;BME280;13479;49.044;8.716;2023-05-22T13:56:19;98567.81;;;30.69;36.35
25610;BME280;13479;49.044;8.716;2023-05-22T13:58:44;98558.78;;;30.79;36.45
25610;BME280;13479;49.044;8.716;2023-05-22T14:01:10;98568.59;;;30.90;35.97
25610;BME280;13479;49.044;8.716;2023-05-22T14:03:35;98573.19;;;31.31;35.07
25610;BME280;13479;49.044;8.716;2023-05-22T14:06:00;98577.56;;;31.32;35.32
25610;BME280;13479;49.044;8.716;2023-05-22T14:08:26;98578.09;;;31.34;34.59
25610;BME280;13479;49.044;8.716;2023-05-22T14:10:51;98577.56;;;31.32;34.59
25610;BME280;13479;49.044;8.716;2023-05-22T14:13:16;98585.44;;;31.44;34.51
25610;BME280;13479;49.044;8.716;2023-05-22T14:15:41;98581.66;;;31.40;34.58
25610;BME280;13479;49.044;8.716;2023-05-22T14:18:07;98583.25;;;31.51;33.15
25610;BME280;13479;49.044;8.716;2023-05-22T14:20:32;98587.28;;;31.59;33.22
25610;BME280;13479;49.044;8.716;2023-05-22T14:22:58;98580.66;;;31.76;32.16
25610;BME280;13479;49.044;8.716;2023-05-22T14:25:24;98578.94;;;31.90;32.26
25610;BME280;13479;49.044;8.716;2023-05-22T14:27:49;98578.34;;;31.98;33.03
25610;BME280;13479;49.044;8.716;2023-05-22T14:30:15;98586.19;;;32.15;32.56
25610;BME280;13479;49.044;8.716;2023-05-22T14:32:40;98589.25;;;32.03;33.20
25610;BME280;13479;49.044;8.716;2023-05-22T14:35:05;98576.72;;;31.92;32.92
25610;BME280;13479;49.044;8.716;2023-05-22T14:37:31;98574.81;;;31.87;32.47
25610;BME280;13479;49.044;8.716;2023-05-22T14:39:56;98567.81;;;31.71;33.78
25610;BME280;13479;49.044;8.716;2023-05-22T14:42:21;98554.81;;;31.87;33.93
25610;BME280;13479;49.044;8.716;2023-05-22T14:44:46;98563.22;;;32.01;31.85
25610;BME280;13479;49.044;8.716;2023-05-22T14:47:12;98559.97;;;31.94;33.72
25610;BME280;13479;49.044;8.716;2023-05-22T14:49:37;98551.66;;;32.04;33.25
25610;BME280;13479;49.044;8.716;2023-05-22T14:52:02;98557.63;;;32.16;33.40
25610;BME280;13479;49.044;8.716;2023-05-22T14:54:28;98557.28;;;32.23;33.52
25610;BME280;13479;49.044;8.716;2023-05-22T14:56:53;98567.69;;;32.31;32.41
25610;BME280;13479;49.044;8.716;2023-05-22T14:59:19;98565.50;;;32.28;31.61
25610;BME280;13479;49.044;8.716;2023-05-22T15:01:44;98569.16;;;32.13;32.33
25610;BME280;13479;49.044;8.716;2023-05-22T15:04:14;98581.09;;;31.93;32.45
25610;BME280;13479;49.044;8.716;2023-05-22T15:06:40;98576.31;;;31.69;32.87
25610;BME280;13479;49.044;8.716;2023-05-22T15:09:05;98584.88;;;31.52;33.30
25610;BME280;13479;49.044;8.716;2023-05-22T15:11:31;98572.28;;;31.46;33.02
25610;BME280;13479;49.044;8.716;2023-05-22T15:13:56;98573.47;;;31.19;32.53
25610;BME280;13479;49.044;8.716;2023-05-22T15:16:21;98564.44;;;31.03;32.78
25610;BME280;13479;49.044;8.716;2023-05-22T15:18:47;98543.69;;;30.87;33.63
25610;BME280;13479;49.044;8.716;2023-05-22T15:21:12;98535.50;;;30.71;34.85
25610;BME280;13479;49.044;8.716;2023-05-22T15:23:37;98534.44;;;30.57;35.54
25610;BME280;13479;49.044;8.716;2023-05-22T15:26:02;98529.50;;;30.28;35.10
25610;BME280;13479;49.044;8.716;2023-05-22T15:28:28;98526.50;;;30.03;36.01
25610;BME280;13479;49.044;8.716;2023-05-22T15:30:53;98526.97;;;29.85;36.50
25610;BME280;13479;49.044;8.716;2023-05-22T15:33:18;98529.94;;;29.57;37.13
25610;BME280;13479;49.044;8.716;2023-05-22T15:35:45;98520.06;;;29.41;37.48
25610;BME280;13479;49.044;8.716;2023-05-22T15:38:11;98516.66;;;29.18;37.31
25610;BME280;13479;49.044;8.716;2023-05-22T15:40:39;98506.22;;;29.05;37.86
25610;BME280;13479;49.044;8.716;2023-05-22T15:43:04;98495.78;;;28.86;37.82
25610;BME280;13479;49.044;8.716;2023-05-22T15:45:31;98495.66;;;28.71;38.20
25610;BME280;13479;49.044;8.716;2023-05-22T15:47:57;98503.75;;;28.55;38.87
25610;BME280;13479;49.044;8.716;2023-05-22T15:50:22;98503.59;;;28.34;39.23
25610;BME280;13479;49.044;8.716;2023-05-22T15:52:48;98495.56;;;28.17;39.59
25610;BME280;13479;49.044;8.716;2023-05-22T15:55:13;98493.31;;;28.09;40.45
25610;BME280;13479;49.044;8.716;2023-05-22T15:57:38;98495.06;;;27.93;41.01
25610;BME280;13479;49.044;8.716;2023-05-22T16:00:04;98495.75;;;27.78;41.27
25610;BME280;13479;49.044;8.716;2023-05-22T16:02:30;98513.91;;;27.67;42.63
25610;BME280;13479;49.044;8.716;2023-05-22T16:04:55;98501.75;;;27.53;42.31
25610;BME280;13479;49.044;8.716;2023-05-22T16:07:20;98496.31;;;27.31;42.63
25610;BME280;13479;49.044;8.716;2023-05-22T16:09:46;98502.03;;;27.07;43.17
25610;BME280;13479;49.044;8.716;2023-05-22T16:12:11;98498.59;;;26.94;42.49
25610;BME280;13479;49.044;8.716;2023-05-22T16:14:36;98499.13;;;26.74;43.56
25610;BME280;13479;49.044;8.716;2023-05-22T16:17:02;98507.66;;;26.61;44.17
25610;BME280;13479;49.044;8.716;2023-05-22T16:19:28;98508.75;;;26.43;44.14
25610;BME280;13479;49.044;8.716;2023-05-22T16:21:53;98515.88;;;26.27;44.29
25610;BME280;13479;49.044;8.716;2023-05-22T16:24:18;98516.66;;;26.10;44.68
25610;BME280;13479;49.044;8.716;2023-05-22T16:26:44;98540.94;;;26.00;46.31
25610;BME280;13479;49.044;8.716;2023-05-22T16:29:09;98559.63;;;25.79;48.59
25610;BME280;13479;49.044;8.716;2023-05-22T16:31:35;98618.31;;;25.51;51.86
25610;BME280;13479;49.044;8.716;2023-05-22T16:34:01;98606.09;;;25.13;53.11
25610;BME280;13479;49.044;8.716;2023-05-22T16:36:27;98617.66;;;24.96;53.23
25610;BME280;13479;49.044;8.716;2023-05-22T16:38:52;98624.13;;;24.72;54.27
25610;BME280;13479;49.044;8.716;2023-05-22T16:41:17;98631.03;;;24.44;56.01
25610;BME280;13479;49.044;8.716;2023-05-22T16:43:42;98676.78;;;24.10;58.43
25610;BME280;13479;49.044;8.716;2023-05-22T16:46:08;98638.28;;;23.52;57.65
25610;BME280;13479;49.044;8.716;2023-05-22T16:48:33;98654.00;;;22.99;59.41
25610;BME280;13479;49.044;8.716;2023-05-22T16:50:58;98653.25;;;21.96;60.75
25610;BME280;13479;49.044;8.716;2023-05-22T16:53:23;98690.63;;;21.13;64.61
25610;BME280;13479;49.044;8.716;2023-05-22T16:55:49;98674.88;;;20.83;64.65